KBVY/BVY METAR and TAF weather

Enter ICAO airport designator
Station Type Date Time Source
KBVY METAR 2019/04/21 21:53 UTC NOAA

KBVY 212153Z 14008KT 10SM BKN095 17/13 A3004 RMK AO2 SLP167 T01720133


Station Type Date Time Source
KBVY Decoded METAR 2019/04/21 21:53 UTC NOAA

BEVERLY MUNICIPAL AIRPORT, MA, United States (KBVY) 42-35N 070-55W 28M
Apr 21, 2019 - 05:53 PM EDT / 2019.04.21 2153 UTC
Wind: from the SE (140 degrees) at 9 MPH (8 KT):0
Visibility: 10 mile(s):0
Sky conditions: mostly cloudy
Temperature: 63.0 F (17.2 C)
Dew Point: 55.9 F (13.3 C)
Relative Humidity: 77%
Pressure (altimeter): 30.04 in. Hg (1017 hPa)
ob: KBVY 212153Z 14008KT 10SM BKN095 17/13 A3004 RMK AO2 SLP167 T01720133
cycle: 22

Station Type Date Time Source
KBVY TAF UTC NOAA

Error!

Example: see airport list